createdAt,value
2019-05-11T00:00:07.357Z,2.0625
2019-05-11T00:00:18.373Z,2.5753
2019-05-11T00:00:27.378Z,3.0462
2019-05-11T00:00:38.378Z,2.9395
2019-05-11T00:00:47.368Z,3.0070
2019-05-11T00:00:58.404Z,3.0465
2019-05-11T00:01:07.388Z,3.7619
2019-05-11T00:01:18.368Z,3.8641
2019-05-11T00:01:27.369Z,3.6624
2019-05-11T00:01:38.418Z,3.2390
2019-05-11T00:01:47.375Z,2.8232
2019-05-11T00:01:58.358Z,3.0680
2019-05-11T00:02:07.374Z,3.1033
2019-05-11T00:02:18.378Z,2.3181
2019-05-11T00:02:27.401Z,2.1681
2019-05-11T00:02:38.369Z,1.7602
2019-05-11T00:02:47.383Z,2.1941
2019-05-11T00:02:58.409Z,2.5469
2019-05-11T00:03:08.229Z,2.2810
2019-05-11T00:03:18.463Z,2.5456
2019-05-11T00:03:27.369Z,2.1861
2019-05-11T00:03:38.371Z,2.4383
2019-05-11T00:03:50.355Z,2.9628
2019-05-11T00:03:58.381Z,3.5586
2019-05-11T00:04:09.381Z,3.5335
2019-05-11T00:04:17.396Z,3.2758
2019-05-11T00:04:28.382Z,3.9021
2019-05-11T00:04:37.354Z,4.2942
2019-05-11T00:04:48.390Z,4.0489
2019-05-11T00:04:57.383Z,3.7023
2019-05-11T00:05:08.361Z,3.6218
2019-05-11T00:05:17.386Z,3.2959
2019-05-11T00:05:28.390Z,2.6702
2019-05-11T00:05:37.355Z,2.8143
2019-05-11T00:05:48.392Z,2.7085
2019-05-11T00:05:57.371Z,2.4401
2019-05-11T00:06:08.385Z,3.6800
2019-05-11T00:06:17.390Z,3.3856
2019-05-11T00:06:28.370Z,2.6039
2019-05-11T00:06:37.443Z,3.3341
2019-05-11T00:06:48.370Z,3.7811
2019-05-11T00:06:59.370Z,3.7198
2019-05-11T00:07:08.359Z,3.4477
2019-05-11T00:07:17.420Z,2.6233
2019-05-11T00:07:29.450Z,2.0097
2019-05-11T00:07:37.381Z,2.9782
2019-05-11T00:07:49.287Z,3.1601
2019-05-11T00:07:57.900Z,3.4163
2019-05-11T00:08:08.351Z,3.3575
2019-05-11T00:08:20.371Z,3.9834
2019-05-11T00:08:27.361Z,3.2837
2019-05-11T00:08:38.369Z,3.2817
2019-05-11T00:08:47.390Z,4.2963
2019-05-11T00:08:58.392Z,4.0005
2019-05-11T00:09:07.385Z,3.3361
2019-05-11T00:09:18.383Z,2.9752
2019-05-11T00:09:27.397Z,3.5694
2019-05-11T00:09:38.392Z,3.7892
2019-05-11T00:09:57.675Z,2.9247
2019-05-11T00:09:58.559Z,3.1470
2019-05-11T00:10:07.376Z,3.1601
2019-05-11T00:10:18.391Z,3.1807
2019-05-11T00:10:27.360Z,3.4403
2019-05-11T00:10:38.386Z,3.1179
2019-05-11T00:10:48.359Z,2.7524
2019-05-11T00:10:58.385Z,2.3296
2019-05-11T00:11:07.355Z,2.1989
2019-05-11T00:11:18.380Z,2.6852
2019-05-11T00:11:27.397Z,2.3833
2019-05-11T00:11:37.281Z,2.2300
2019-05-11T00:11:47.377Z,2.4359
2019-05-11T00:11:58.362Z,2.8793
2019-05-11T00:12:10.271Z,2.3583
2019-05-11T00:12:18.383Z,2.8047
2019-05-11T00:12:29.380Z,2.9403
2019-05-11T00:12:37.363Z,3.3248
2019-05-11T00:12:50.281Z,3.9027
2019-05-11T00:12:57.378Z,3.4992
2019-05-11T00:13:08.906Z,4.1043
2019-05-11T00:13:18.930Z,4.1761
2019-05-11T00:13:28.366Z,3.5742
2019-05-11T00:13:37.372Z,3.5238
2019-05-11T00:13:48.363Z,2.8905
2019-05-11T00:13:57.346Z,2.7342
2019-05-11T00:14:08.366Z,3.0906
2019-05-11T00:14:17.382Z,2.9089
2019-05-11T00:14:28.366Z,3.5889
2019-05-11T00:14:37.364Z,2.9815
2019-05-11T00:14:48.360Z,2.8814
2019-05-11T00:15:01.894Z,4.1185
2019-05-11T00:15:08.366Z,4.5391
2019-05-11T00:15:17.374Z,3.6946
2019-05-11T00:15:28.362Z,3.2856
2019-05-11T00:15:37.373Z,2.7553
2019-05-11T00:15:47.495Z,2.7777
2019-05-11T00:15:58.670Z,2.6958
2019-05-11T00:16:09.381Z,2.8823
2019-05-11T00:16:19.174Z,3.1234
2019-05-11T00:16:29.183Z,3.0846
2019-05-11T00:16:40.510Z,3.6468
2019-05-11T00:16:48.366Z,3.4878
2019-05-11T00:17:00.392Z,2.9548
2019-05-11T00:17:07.389Z,3.2903
2019-05-11T00:17:19.363Z,3.6721
2019-05-11T00:17:27.371Z,4.1475
2019-05-11T00:17:38.393Z,4.6897
2019-05-11T00:17:47.381Z,4.9573
2019-05-11T00:17:58.370Z,3.9018
2019-05-11T00:18:07.412Z,3.9512
2019-05-11T00:18:18.374Z,3.6836
2019-05-11T00:18:27.371Z,3.4640
2019-05-11T00:18:42.927Z,2.6048
2019-05-11T00:18:52.904Z,2.7022
2019-05-11T00:18:58.372Z,2.4337
2019-05-11T00:19:09.417Z,2.5841
2019-05-11T00:19:18.375Z,2.2802
2019-05-11T00:19:27.375Z,2.4845
2019-05-11T00:19:37.371Z,3.2908
2019-05-11T00:19:47.368Z,4.8457
2019-05-11T00:19:58.374Z,4.4380
2019-05-11T00:20:08.458Z,4.2022
2019-05-11T00:20:23.024Z,2.6931
2019-05-11T00:20:27.362Z,3.2610
2019-05-11T00:20:38.370Z,3.1473
2019-05-11T00:20:50.480Z,2.9722
2019-05-11T00:20:59.188Z,3.2279
2019-05-11T00:21:10.437Z,3.0466
2019-05-11T00:21:17.404Z,2.8850
2019-05-11T00:21:30.287Z,2.5124
2019-05-11T00:21:39.916Z,2.3404
2019-05-11T00:21:48.378Z,2.6784
2019-05-11T00:21:57.391Z,3.5642
2019-05-11T00:22:08.437Z,3.5827
2019-05-11T00:22:17.362Z,3.8378
2019-05-11T00:22:28.363Z,3.8280
2019-05-11T00:22:37.384Z,3.4858
2019-05-11T00:22:48.362Z,3.2378
2019-05-11T00:22:57.358Z,3.0795
2019-05-11T00:23:08.380Z,2.3622
2019-05-11T00:23:17.382Z,2.2983
2019-05-11T00:23:28.390Z,2.6974
2019-05-11T00:23:37.388Z,3.5823
2019-05-11T00:23:48.357Z,3.8199
2019-05-11T00:23:57.354Z,4.0172
2019-05-11T00:24:08.384Z,3.9522
2019-05-11T00:24:18.435Z,3.1182
2019-05-11T00:24:29.476Z,2.8352
2019-05-11T00:24:38.313Z,2.6511
2019-05-11T00:24:48.377Z,3.4516
2019-05-11T00:24:59.395Z,3.4306
2019-05-11T00:25:07.381Z,3.4157
2019-05-11T00:25:19.373Z,3.7023
2019-05-11T00:25:27.368Z,3.1869
2019-05-11T00:25:38.383Z,2.6909
2019-05-11T00:25:47.381Z,2.5094
2019-05-11T00:25:58.363Z,2.9883
2019-05-11T00:26:07.361Z,3.4747
2019-05-11T00:26:18.385Z,3.7545
2019-05-11T00:26:27.383Z,3.6294
2019-05-11T00:26:38.019Z,3.6733
2019-05-11T00:26:47.379Z,3.5120
2019-05-11T00:26:58.368Z,3.4707
2019-05-11T00:27:07.445Z,3.7315
2019-05-11T00:27:18.386Z,3.7929
2019-05-11T00:27:27.367Z,3.3664
2019-05-11T00:27:37.371Z,3.1727
2019-05-11T00:27:47.375Z,3.1030
2019-05-11T00:27:58.377Z,2.2769
2019-05-11T00:28:08.436Z,1.9951
2019-05-11T00:28:17.582Z,2.1598
2019-05-11T00:28:28.233Z,2.3303
2019-05-11T00:28:38.375Z,2.3878
2019-05-11T00:28:49.375Z,3.7694
2019-05-11T00:28:58.374Z,3.5744
2019-05-11T00:29:07.976Z,3.9434
2019-05-11T00:29:17.380Z,4.8513
2019-05-11T00:29:29.389Z,4.3362
2019-05-11T00:29:37.868Z,3.4454
2019-05-11T00:29:48.371Z,2.7146
2019-05-11T00:29:57.392Z,2.4421
2019-05-11T00:30:08.358Z,2.4771
2019-05-11T00:30:17.368Z,2.4537
2019-05-11T00:30:28.381Z,2.6568
2019-05-11T00:30:37.375Z,2.5528
2019-05-11T00:30:48.377Z,2.7886
2019-05-11T00:30:57.377Z,2.3946
2019-05-11T00:31:08.372Z,1.4664
2019-05-11T00:31:17.371Z,6.2090
2019-05-11T00:31:27.923Z,5.8083
2019-05-11T00:31:37.380Z,5.3013
2019-05-11T00:31:48.399Z,3.9639
2019-05-11T00:31:58.478Z,3.0930
2019-05-11T00:32:07.580Z,2.2561
2019-05-11T00:32:17.355Z,2.2881
2019-05-11T00:32:28.377Z,2.5378
2019-05-11T00:32:39.398Z,2.8742
2019-05-11T00:32:48.398Z,2.4178
2019-05-11T00:33:02.858Z,3.6454
2019-05-11T00:33:07.379Z,3.8377
2019-05-11T00:33:19.344Z,3.1450
2019-05-11T00:33:27.415Z,2.7111
2019-05-11T00:33:38.392Z,2.4616
2019-05-11T00:33:47.375Z,2.5407
2019-05-11T00:33:58.393Z,2.9850
2019-05-11T00:34:11.898Z,2.7896
2019-05-11T00:34:18.368Z,2.4279
2019-05-11T00:34:27.370Z,2.4363
2019-05-11T00:34:38.390Z,2.6939
2019-05-11T00:34:47.364Z,2.2773
2019-05-11T00:34:58.401Z,2.1362
2019-05-11T00:35:08.365Z,2.3375
2019-05-11T00:35:18.376Z,3.1397
2019-05-11T00:35:27.356Z,3.8504
2019-05-11T00:35:38.381Z,3.7522
2019-05-11T00:35:47.383Z,3.2557
2019-05-11T00:35:58.379Z,2.6743
2019-05-11T00:36:08.408Z,2.7521
2019-05-11T00:36:18.373Z,2.2984
2019-05-11T00:36:28.346Z,2.6288
2019-05-11T00:36:38.363Z,2.4694
2019-05-11T00:36:50.209Z,2.8820
2019-05-11T00:36:59.381Z,2.3762
2019-05-11T00:37:09.361Z,2.2900
2019-05-11T00:37:17.371Z,2.4749
2019-05-11T00:37:28.362Z,3.0369
2019-05-11T00:37:37.360Z,2.9444
2019-05-11T00:37:48.383Z,2.3084
2019-05-11T00:37:57.379Z,2.0809
2019-05-11T00:38:08.374Z,2.3649
2019-05-11T00:38:17.387Z,1.9989
2019-05-11T00:38:28.373Z,2.8018
2019-05-11T00:38:37.641Z,3.1334
2019-05-11T00:38:48.385Z,2.3548
2019-05-11T00:38:57.373Z,2.3574
2019-05-11T00:39:08.377Z,2.1934
2019-05-11T00:39:17.374Z,1.8227
2019-05-11T00:39:28.384Z,1.4566
2019-05-11T00:39:37.354Z,1.5669
2019-05-11T00:39:47.868Z,2.2884
2019-05-11T00:40:13.325Z,2.6863
2019-05-11T00:40:14.463Z,2.9377
2019-05-11T00:40:17.365Z,2.9332
2019-05-11T00:40:28.354Z,2.9693
2019-05-11T00:40:37.378Z,2.3251
2019-05-11T00:40:48.364Z,2.9476
2019-05-11T00:40:59.360Z,3.4519
2019-05-11T00:41:08.382Z,3.1145
2019-05-11T00:41:20.233Z,2.2842
2019-05-11T00:41:27.389Z,1.8927
2019-05-11T00:41:38.390Z,1.9423
2019-05-11T00:41:47.384Z,2.8286
2019-05-11T00:41:58.358Z,2.8668
2019-05-11T00:42:07.359Z,2.7897
2019-05-11T00:42:18.359Z,2.3065
2019-05-11T00:42:27.375Z,2.2656
2019-05-11T00:42:38.386Z,2.9656
2019-05-11T00:42:47.401Z,2.7045
2019-05-11T00:42:58.375Z,2.3131
2019-05-11T00:43:07.381Z,2.3793
2019-05-11T00:43:18.376Z,3.2147
2019-05-11T00:43:31.945Z,2.7358
2019-05-11T00:43:38.366Z,2.9207
2019-05-11T00:43:47.371Z,3.6891
2019-05-11T00:43:58.375Z,3.5625
2019-05-11T00:44:09.358Z,3.3781
2019-05-11T00:44:18.380Z,3.2193
2019-05-11T00:44:28.322Z,3.5159
2019-05-11T00:44:38.356Z,3.9231
2019-05-11T00:44:47.495Z,3.3823
2019-05-11T00:44:59.301Z,3.3480
2019-05-11T00:45:09.372Z,3.9528
2019-05-11T00:45:18.409Z,3.5655
2019-05-11T00:45:30.290Z,3.3368
2019-05-11T00:45:37.387Z,2.9822
2019-05-11T00:45:49.380Z,2.4458
2019-05-11T00:45:57.455Z,3.0677
2019-05-11T00:46:08.370Z,3.8849
2019-05-11T00:46:17.393Z,3.4357
2019-05-11T00:46:28.383Z,3.3324
2019-05-11T00:46:37.422Z,2.4264
2019-05-11T00:46:48.384Z,2.7217
2019-05-11T00:46:57.406Z,2.4855
2019-05-11T00:47:08.371Z,2.2848
2019-05-11T00:47:17.383Z,2.0119
2019-05-11T00:47:32.901Z,3.0346
2019-05-11T00:47:37.373Z,3.8852
2019-05-11T00:47:48.371Z,4.0783
2019-05-11T00:47:57.368Z,3.7269
2019-05-11T00:48:08.429Z,3.1478
2019-05-11T00:48:18.804Z,4.2028
2019-05-11T00:48:27.339Z,3.5638
2019-05-11T00:48:37.430Z,3.0280
2019-05-11T00:48:48.374Z,3.3852
2019-05-11T00:48:58.308Z,3.4220
2019-05-11T00:49:09.599Z,2.5754
2019-05-11T00:49:20.391Z,1.5147
2019-05-11T00:49:28.358Z,1.9732
2019-05-11T00:49:39.412Z,2.6798
2019-05-11T00:49:47.353Z,2.8061
2019-05-11T00:49:59.393Z,2.6063
2019-05-11T00:50:07.375Z,2.4484
2019-05-11T00:50:18.386Z,2.7175
2019-05-11T00:50:39.509Z,2.7568
2019-05-11T00:50:40.194Z,2.5023
2019-05-11T00:50:47.361Z,2.4126
2019-05-11T00:50:58.372Z,2.2143
2019-05-11T00:51:07.376Z,2.4454
2019-05-11T00:51:18.360Z,3.3245
2019-05-11T00:51:27.363Z,3.8129
2019-05-11T00:51:38.366Z,2.6878
2019-05-11T00:51:47.410Z,1.9688
2019-05-11T00:51:58.356Z,2.1772
2019-05-11T00:52:07.366Z,2.1948
2019-05-11T00:52:18.369Z,2.6746
2019-05-11T00:52:27.399Z,2.7809
2019-05-11T00:52:37.796Z,3.4117
2019-05-11T00:52:47.384Z,2.8628
2019-05-11T00:52:57.297Z,2.5268
2019-05-11T00:53:07.369Z,2.0403
2019-05-11T00:53:18.365Z,1.8445
2019-05-11T00:53:27.383Z,1.5322
2019-05-11T00:53:38.413Z,1.7468
2019-05-11T00:53:48.475Z,1.8843
2019-05-11T00:53:59.290Z,2.3022
2019-05-11T00:54:09.377Z,1.9005
2019-05-11T00:54:18.387Z,2.5499
2019-05-11T00:54:30.293Z,2.6486
2019-05-11T00:54:37.376Z,3.1334
2019-05-11T00:54:49.348Z,3.3926
2019-05-11T00:54:57.354Z,3.2613
2019-05-11T00:55:08.388Z,2.9702
2019-05-11T00:55:17.367Z,3.2944
2019-05-11T00:55:28.371Z,3.4496
2019-05-11T00:55:37.388Z,3.2285
2019-05-11T00:55:48.380Z,3.0286
2019-05-11T00:55:57.381Z,3.6005
2019-05-11T00:56:08.364Z,3.7584
2019-05-11T00:56:17.390Z,3.2004
2019-05-11T00:56:28.370Z,2.6445
2019-05-11T00:56:37.386Z,3.0831
2019-05-11T00:56:48.385Z,4.5133
2019-05-11T00:56:57.356Z,4.2057
2019-05-11T00:57:08.378Z,3.2316
2019-05-11T00:57:17.384Z,2.7990
2019-05-11T00:57:28.395Z,2.6976
2019-05-11T00:57:37.015Z,3.0020
2019-05-11T00:57:48.363Z,2.7689
2019-05-11T00:57:57.377Z,2.1938
2019-05-11T00:58:08.375Z,1.8864
2019-05-11T00:58:18.317Z,1.4513
2019-05-11T00:58:28.375Z,1.5472
2019-05-11T00:58:39.364Z,2.1927
2019-05-11T00:58:50.954Z,2.5242
2019-05-11T00:59:00.416Z,3.2203
2019-05-11T00:59:20.884Z,3.1572
2019-05-11T00:59:21.748Z,2.4920
2019-05-11T00:59:27.375Z,2.4242
2019-05-11T00:59:38.355Z,2.3924
2019-05-11T00:59:47.359Z,2.2656
2019-05-11T00:59:58.373Z,3.1197
2019-05-11T01:00:07.385Z,3.8978
2019-05-11T01:00:18.364Z,3.3678
2019-05-11T01:00:27.374Z,3.1895
2019-05-11T01:00:38.380Z,2.6896
2019-05-11T01:00:47.376Z,2.8346
2019-05-11T01:00:58.389Z,2.2562
2019-05-11T01:01:07.358Z,1.6620
2019-05-11T01:01:18.368Z,1.8327
2019-05-11T01:01:27.367Z,2.0492
2019-05-11T01:01:37.784Z,2.3146
2019-05-11T01:01:47.396Z,3.0765
2019-05-11T01:01:57.332Z,3.0781
2019-05-11T01:02:07.374Z,3.5791
2019-05-11T01:02:17.578Z,3.6977
2019-05-11T01:02:27.364Z,3.8168
2019-05-11T01:02:38.374Z,4.2799
2019-05-11T01:02:49.358Z,3.0429
2019-05-11T01:02:58.364Z,2.5210
2019-05-11T01:03:09.371Z,2.6024
2019-05-11T01:03:17.354Z,2.5825
2019-05-11T01:03:28.384Z,2.8818
2019-05-11T01:03:37.361Z,2.6253
2019-05-11T01:03:48.380Z,2.8965
2019-05-11T01:03:57.376Z,3.7387
2019-05-11T01:04:08.386Z,4.0014
2019-05-11T01:04:17.415Z,3.1160
2019-05-11T01:04:28.393Z,2.5064
2019-05-11T01:04:37.402Z,2.4814
2019-05-11T01:04:48.387Z,2.2459
2019-05-11T01:04:57.385Z,2.8885
2019-05-11T01:05:08.433Z,3.0859
2019-05-11T01:05:17.368Z,3.2054
2019-05-11T01:05:28.356Z,3.1766
2019-05-11T01:05:37.393Z,4.4074
2019-05-11T01:05:48.380Z,4.6983
2019-05-11T01:05:57.368Z,4.5876
2019-05-11T01:06:08.375Z,3.7635
2019-05-11T01:06:19.383Z,3.3421
2019-05-11T01:06:28.382Z,3.8373
2019-05-11T01:06:40.245Z,3.7778
2019-05-11T01:06:47.392Z,3.3994
2019-05-11T01:06:58.401Z,3.0322
2019-05-11T01:07:07.381Z,2.3070
2019-05-11T01:07:18.394Z,2.6447
2019-05-11T01:07:27.386Z,3.0737
2019-05-11T01:07:38.379Z,2.0629
2019-05-11T01:07:47.364Z,2.0474
2019-05-11T01:07:58.372Z,2.4161
2019-05-11T01:08:07.389Z,2.8178
2019-05-11T01:08:18.028Z,3.0739
2019-05-11T01:08:27.372Z,2.3815
2019-05-11T01:08:38.370Z,1.7968
2019-05-11T01:08:47.369Z,2.0496
2019-05-11T01:08:58.508Z,1.6540
2019-05-11T01:09:07.393Z,1.7393
2019-05-11T01:09:18.382Z,2.0271
2019-05-11T01:09:27.381Z,2.2938
2019-05-11T01:09:37.389Z,2.6289
2019-05-11T01:09:49.371Z,2.1991
2019-05-11T01:09:57.256Z,2.3464
2019-05-11T01:10:21.745Z,3.2163
2019-05-11T01:10:25.674Z,3.0826
2019-05-11T01:10:41.133Z,2.8162
2019-05-11T01:10:42.693Z,2.4936
2019-05-11T01:10:47.367Z,2.1091
2019-05-11T01:10:58.363Z,1.7726
2019-05-11T01:11:09.360Z,2.0889
2019-05-11T01:11:18.373Z,1.9402
2019-05-11T01:11:29.356Z,2.2709
2019-05-11T01:11:39.258Z,3.0053
2019-05-11T01:11:49.376Z,3.2790
2019-05-11T01:11:57.386Z,3.5810
2019-05-11T01:12:10.916Z,3.0375
2019-05-11T01:12:17.368Z,3.1053
2019-05-11T01:12:28.359Z,3.3016
2019-05-11T01:12:37.371Z,3.7661
2019-05-11T01:12:48.390Z,2.4545
2019-05-11T01:13:01.867Z,2.2079
2019-05-11T01:13:08.383Z,2.7906
2019-05-11T01:13:17.391Z,3.2143
2019-05-11T01:13:28.373Z,4.0788
2019-05-11T01:13:37.380Z,3.5551
2019-05-11T01:13:48.361Z,2.5679
2019-05-11T01:13:57.377Z,2.3839
2019-05-11T01:14:08.361Z,2.5578
2019-05-11T01:14:17.940Z,2.8971
2019-05-11T01:14:28.376Z,3.1854
2019-05-11T01:14:37.371Z,3.4355
2019-05-11T01:14:48.421Z,3.7954
2019-05-11T01:14:58.934Z,2.7870
2019-05-11T01:15:08.395Z,2.1129
2019-05-11T01:15:18.268Z,2.1143
2019-05-11T01:15:27.590Z,1.9790
2019-05-11T01:15:37.440Z,2.2727
2019-05-11T01:15:48.369Z,2.3504
2019-05-11T01:16:00.397Z,2.6924
2019-05-11T01:16:08.408Z,1.9983
2019-05-11T01:16:19.368Z,1.8004
2019-05-11T01:16:27.379Z,2.5845
2019-05-11T01:16:39.367Z,2.2712
2019-05-11T01:16:47.392Z,2.9427
2019-05-11T01:16:58.360Z,3.0631
2019-05-11T01:17:07.366Z,3.0235
2019-05-11T01:17:18.380Z,2.4457
2019-05-11T01:17:27.384Z,2.5305
2019-05-11T01:17:38.385Z,1.8941
2019-05-11T01:17:47.395Z,1.5017
2019-05-11T01:17:58.378Z,1.1867
2019-05-11T01:18:07.368Z,1.1263
2019-05-11T01:18:18.379Z,2.0159
2019-05-11T01:18:27.413Z,1.9465
2019-05-11T01:18:38.378Z,2.4758
2019-05-11T01:18:47.378Z,2.6325
2019-05-11T01:18:58.368Z,3.1745
2019-05-11T01:19:07.380Z,2.4495
2019-05-11T01:19:18.362Z,1.4980
2019-05-11T01:19:29.387Z,2.1211
2019-05-11T01:19:38.356Z,2.6685
2019-05-11T01:19:48.391Z,2.6630
2019-05-11T01:19:57.578Z,1.7971
2019-05-11T01:20:07.382Z,2.0391
2019-05-11T01:20:19.440Z,2.2498
2019-05-11T01:20:29.360Z,1.9613
2019-05-11T01:20:38.355Z,2.0978
2019-05-11T01:20:50.417Z,2.3902
2019-05-11T01:20:59.912Z,2.3323
2019-05-11T01:21:09.375Z,2.0488
2019-05-11T01:21:17.381Z,2.5298
2019-05-11T01:21:28.360Z,1.9754
2019-05-11T01:21:37.354Z,1.9667
2019-05-11T01:21:48.375Z,1.7376
2019-05-11T01:21:57.387Z,2.2500
2019-05-11T01:22:08.379Z,2.4463
2019-05-11T01:22:17.376Z,2.3003
2019-05-11T01:22:28.375Z,1.6208
2019-05-11T01:22:37.379Z,2.3725
2019-05-11T01:22:48.448Z,3.2545
2019-05-11T01:22:57.371Z,3.4915
2019-05-11T01:23:08.362Z,3.1589
2019-05-11T01:23:17.378Z,2.6128
2019-05-11T01:23:27.809Z,2.4009
2019-05-11T01:23:37.378Z,2.6103
2019-05-11T01:23:48.387Z,1.9195
2019-05-11T01:23:58.814Z,2.4174
2019-05-11T01:24:08.395Z,2.7555
2019-05-11T01:24:18.308Z,3.0720
2019-05-11T01:24:27.596Z,4.2620
2019-05-11T01:24:37.380Z,3.8212
2019-05-11T01:24:49.322Z,2.8415
2019-05-11T01:24:57.369Z,2.9099
2019-05-11T01:25:08.406Z,3.3821
2019-05-11T01:25:20.336Z,3.3383
2019-05-11T01:25:28.375Z,3.5218
2019-05-11T01:25:39.366Z,2.7751
2019-05-11T01:25:47.378Z,3.0710
2019-05-11T01:25:59.364Z,3.0606
2019-05-11T01:26:07.378Z,3.0601
2019-05-11T01:26:18.390Z,2.7627
2019-05-11T01:26:31.937Z,2.0712
2019-05-11T01:26:38.362Z,2.0842
2019-05-11T01:26:47.378Z,1.8082
2019-05-11T01:26:58.374Z,2.0998
2019-05-11T01:27:07.368Z,2.9450
2019-05-11T01:27:18.361Z,3.3432
2019-05-11T01:27:27.390Z,4.3495
2019-05-11T01:27:38.382Z,4.2437
2019-05-11T01:27:47.368Z,3.7688
2019-05-11T01:27:58.383Z,3.0031
2019-05-11T01:28:07.371Z,2.4999
2019-05-11T01:28:18.387Z,2.2367
2019-05-11T01:28:27.378Z,2.6719
2019-05-11T01:28:37.803Z,2.2282
2019-05-11T01:28:47.365Z,2.5429
2019-05-11T01:28:58.393Z,2.9944
2019-05-11T01:29:07.379Z,2.8244
2019-05-11T01:29:18.355Z,2.8324
2019-05-11T01:29:27.359Z,2.7827
2019-05-11T01:29:38.404Z,2.8134
2019-05-11T01:29:47.371Z,2.9942
2019-05-11T01:29:59.403Z,3.4853
2019-05-11T01:30:09.384Z,3.0207
2019-05-11T01:30:17.375Z,2.6537
2019-05-11T01:30:29.385Z,2.9683
2019-05-11T01:30:38.867Z,2.9778
2019-05-11T01:30:48.363Z,2.7837
2019-05-11T01:30:57.377Z,2.6103
2019-05-11T01:31:11.158Z,4.0022
2019-05-11T01:31:17.377Z,4.4901
2019-05-11T01:31:32.891Z,3.3823
2019-05-11T01:31:37.394Z,2.9623
2019-05-11T01:31:48.371Z,2.4108
2019-05-11T01:31:57.377Z,2.0183
2019-05-11T01:32:07.967Z,2.0830
2019-05-11T01:32:17.369Z,2.4063
2019-05-11T01:32:28.378Z,1.8294
2019-05-11T01:32:37.393Z,1.8837
2019-05-11T01:32:48.402Z,1.9070
2019-05-11T01:32:57.367Z,2.8546
2019-05-11T01:33:07.272Z,2.9815
2019-05-11T01:33:17.372Z,3.2214
2019-05-11T01:33:28.381Z,2.7555
2019-05-11T01:33:39.319Z,3.1942
2019-05-11T01:33:48.422Z,4.0335
2019-05-11T01:33:57.383Z,3.4522
2019-05-11T01:34:09.342Z,2.4893
2019-05-11T01:34:22.926Z,2.5246
2019-05-11T01:34:28.397Z,2.5320
2019-05-11T01:34:40.227Z,2.6111
2019-05-11T01:34:47.399Z,2.2659
2019-05-11T01:34:59.389Z,2.9136
2019-05-11T01:35:07.359Z,2.7848
2019-05-11T01:35:18.406Z,2.8745
2019-05-11T01:35:30.283Z,3.7270
2019-05-11T01:35:38.418Z,3.7667
2019-05-11T01:35:50.886Z,3.3921
2019-05-11T01:35:58.404Z,3.3745
2019-05-11T01:36:07.367Z,3.6441
2019-05-11T01:36:18.386Z,3.3835
2019-05-11T01:36:27.362Z,2.4612
2019-05-11T01:36:38.382Z,2.3404
2019-05-11T01:36:47.363Z,2.1778
2019-05-11T01:36:58.390Z,2.1848
2019-05-11T01:37:09.377Z,3.3095
2019-05-11T01:37:18.356Z,3.4658
2019-05-11T01:37:27.363Z,3.8251
2019-05-11T01:37:37.272Z,3.6236
2019-05-11T01:37:47.391Z,2.9883
2019-05-11T01:37:58.368Z,3.2027
2019-05-11T01:38:08.938Z,3.6899
2019-05-11T01:38:17.604Z,3.3564
2019-05-11T01:38:27.359Z,4.2663
2019-05-11T01:38:39.397Z,3.8901
2019-05-11T01:38:49.366Z,3.9178
2019-05-11T01:38:58.370Z,3.8249
2019-05-11T01:39:10.390Z,3.7566
2019-05-11T01:39:19.961Z,3.0001
2019-05-11T01:39:29.381Z,3.9894
2019-05-11T01:39:38.887Z,3.7220
2019-05-11T01:39:48.385Z,3.1600
2019-05-11T01:39:57.385Z,3.5646
2019-05-11T01:40:11.006Z,3.2951
2019-05-11T01:40:17.409Z,3.0419
2019-05-11T01:40:28.378Z,2.2455
2019-05-11T01:40:37.370Z,3.4015
2019-05-11T01:40:58.155Z,4.3790
2019-05-11T01:40:59.023Z,3.6816
2019-05-11T01:41:08.370Z,2.9551
2019-05-11T01:41:17.389Z,3.2242
2019-05-11T01:41:28.376Z,3.3471
2019-05-11T01:41:37.361Z,3.3933
2019-05-11T01:41:48.387Z,3.1404
2019-05-11T01:41:57.388Z,3.1509
2019-05-11T01:42:08.385Z,3.0562
2019-05-11T01:42:17.378Z,2.9249
2019-05-11T01:42:28.368Z,3.6448
2019-05-11T01:42:37.395Z,3.0223
2019-05-11T01:42:52.933Z,2.4720
2019-05-11T01:42:57.370Z,2.2835
2019-05-11T01:43:07.344Z,2.3927
2019-05-11T01:43:18.377Z,2.9463
2019-05-11T01:43:28.386Z,2.9418
2019-05-11T01:43:40.357Z,2.6497
2019-05-11T01:43:48.899Z,2.7029
2019-05-11T01:44:00.906Z,2.6800
2019-05-11T01:44:07.383Z,2.6700
2019-05-11T01:44:18.376Z,2.6899
2019-05-11T01:44:27.372Z,3.3050
2019-05-11T01:44:38.372Z,3.8858
2019-05-11T01:44:47.359Z,4.1273
2019-05-11T01:44:58.382Z,3.9689
2019-05-11T01:45:11.899Z,3.9011
2019-05-11T01:45:18.380Z,3.4246
2019-05-11T01:45:27.384Z,2.7399
2019-05-11T01:45:38.386Z,2.4536
2019-05-11T01:45:47.384Z,2.6371
2019-05-11T01:45:58.386Z,2.2572
2019-05-11T01:46:07.371Z,2.9480
2019-05-11T01:46:18.354Z,2.9793
2019-05-11T01:46:27.358Z,3.5094
2019-05-11T01:46:38.376Z,3.2096
2019-05-11T01:46:47.421Z,3.5028
2019-05-11T01:46:58.372Z,2.8547
2019-05-11T01:47:10.200Z,2.1987
2019-05-11T01:47:18.367Z,1.7386
2019-05-11T01:47:29.538Z,2.3403
2019-05-11T01:47:37.382Z,2.0719
2019-05-11T01:47:50.320Z,1.8645
2019-05-11T01:47:57.361Z,3.2630
2019-05-11T01:48:07.876Z,3.6202
2019-05-11T01:48:17.372Z,3.6365
2019-05-11T01:48:28.384Z,3.4188
2019-05-11T01:48:37.367Z,3.2540
2019-05-11T01:48:48.399Z,3.0879
2019-05-11T01:48:57.372Z,2.6768
2019-05-11T01:49:08.005Z,2.1903
2019-05-11T01:49:17.372Z,2.9332
2019-05-11T01:49:28.386Z,3.4264
2019-05-11T01:49:37.405Z,3.6206
2019-05-11T01:49:48.386Z,4.0987
2019-05-11T01:49:57.908Z,3.9685
2019-05-11T01:50:08.370Z,3.0331
2019-05-11T01:50:18.880Z,2.2510
2019-05-11T01:50:28.377Z,2.3964
2019-05-11T01:50:37.385Z,2.6770
2019-05-11T01:50:49.361Z,2.8833
2019-05-11T01:50:59.379Z,3.2931
2019-05-11T01:51:08.370Z,2.8958
2019-05-11T01:51:20.313Z,2.8722
2019-05-11T01:51:27.364Z,3.1263
2019-05-11T01:51:38.374Z,2.4202
2019-05-11T01:51:47.379Z,2.0359
2019-05-11T01:51:58.386Z,2.0680
2019-05-11T01:52:07.368Z,1.8578
2019-05-11T01:52:18.372Z,2.1096
2019-05-11T01:52:27.364Z,2.8186
2019-05-11T01:52:38.387Z,3.0988
2019-05-11T01:52:47.373Z,2.8734
2019-05-11T01:52:58.365Z,3.0215
2019-05-11T01:53:07.363Z,3.8115
2019-05-11T01:53:18.393Z,3.1328
2019-05-11T01:53:27.380Z,4.3270
2019-05-11T01:53:38.385Z,3.8831
2019-05-11T01:53:48.202Z,3.5944
2019-05-11T01:53:58.400Z,3.3861
2019-05-11T01:54:08.311Z,3.2181
2019-05-11T01:54:17.861Z,2.6441
2019-05-11T01:54:27.395Z,2.4842
2019-05-11T01:54:39.276Z,2.6729
2019-05-11T01:54:47.366Z,2.4173
2019-05-11T01:54:58.374Z,1.6598
2019-05-11T01:55:09.363Z,1.8996
2019-05-11T01:55:18.362Z,1.9784
2019-05-11T01:55:30.433Z,2.1830
2019-05-11T01:55:37.384Z,2.3702
2019-05-11T01:55:50.907Z,1.8408
2019-05-11T01:55:57.408Z,2.1980
2019-05-11T01:56:08.364Z,2.2853
2019-05-11T01:56:17.363Z,2.5235
2019-05-11T01:56:28.384Z,1.8177
2019-05-11T01:56:37.387Z,2.0246
2019-05-11T01:56:48.399Z,2.0899
2019-05-11T01:56:57.374Z,2.5092
2019-05-11T01:57:08.370Z,3.2732
2019-05-11T01:57:17.359Z,3.0716
2019-05-11T01:57:28.389Z,3.0163
2019-05-11T01:57:37.379Z,3.7397
2019-05-11T01:57:48.362Z,3.9323
2019-05-11T01:57:57.377Z,4.5733
2019-05-11T01:58:08.389Z,4.0831
2019-05-11T01:58:17.383Z,3.4530
2019-05-11T01:58:27.281Z,2.4070
2019-05-11T01:58:37.451Z,2.4632
2019-05-11T01:58:48.363Z,2.4313
2019-05-11T01:58:58.276Z,2.6607
2019-05-11T01:59:08.371Z,3.1788
2019-05-11T01:59:19.375Z,3.8095
2019-05-11T01:59:29.231Z,4.1753
2019-05-11T01:59:40.464Z,3.3532
2019-05-11T01:59:47.359Z,2.3660
2019-05-11T01:59:58.375Z,3.2563
2019-05-11T02:00:07.386Z,3.2579
2019-05-11T02:00:18.381Z,2.8610
2019-05-11T02:00:27.382Z,2.8954
2019-05-11T02:00:38.391Z,3.9467
2019-05-11T02:00:47.388Z,3.6752
2019-05-11T02:00:58.353Z,4.5742
2019-05-11T02:01:07.389Z,4.8413
2019-05-11T02:01:18.389Z,4.1939
2019-05-11T02:01:27.362Z,3.7300
2019-05-11T02:01:38.385Z,3.4538
2019-05-11T02:01:47.376Z,2.7891
2019-05-11T02:01:57.332Z,2.5204
2019-05-11T02:02:07.374Z,2.9128
2019-05-11T02:02:17.613Z,3.5270
2019-05-11T02:02:27.367Z,2.9503
2019-05-11T02:02:39.388Z,3.2282
2019-05-11T02:02:49.376Z,2.7260
2019-05-11T02:02:58.381Z,3.4655
2019-05-11T02:03:09.385Z,3.6330
2019-05-11T02:03:17.399Z,2.8636
2019-05-11T02:03:30.900Z,1.8593
2019-05-11T02:03:37.392Z,1.8153
2019-05-11T02:03:48.362Z,3.0667
2019-05-11T02:03:57.382Z,3.1109
2019-05-11T02:04:08.384Z,2.6255
2019-05-11T02:04:17.384Z,2.2076
2019-05-11T02:04:28.384Z,2.1932
2019-05-11T02:04:37.405Z,1.8483
2019-05-11T02:04:50.924Z,2.0626